Moose River, Canada
Current Conditions -  °F | °C
As of 11:13 AM on Friday 21 Nov 2014 (Local Time) from CYMO Reporting Station
Light Snow Light Snow  
Wind Chill: -18°   Ceiling: Unl
Heat Index:   Visibility: 1.2mi
Dew Point: -8°   Wind: 16mph
Humidity: 66%   Direction: 240°WSW
Pressure: 30.12"   Gusts: 23mph
Location:  50.8°N, 81.28°W
Report Text: CYMO 211613Z AUTO 24014G20KT 1 1/4SM -SN CLR M17/M22 A3012 RMK SLP199
Loading
Personal Weather Stations






























Interactive Weather Map New forecast layout! Learn more

10-Day Weather Forecast

Advertisements
Track Severe Weather on mobile